createdAt,value
2022-11-16T00:00:35.316Z,3.41
2022-11-16T00:03:03.021Z,3.37
2022-11-16T00:05:29.549Z,3.37
2022-11-16T00:07:56.326Z,3.35
2022-11-16T00:10:22.725Z,3.35
2022-11-16T00:12:49.113Z,3.32
2022-11-16T00:15:15.579Z,3.31
2022-11-16T00:17:41.998Z,3.29
2022-11-16T00:20:08.742Z,3.28
2022-11-16T00:22:35.229Z,3.30
2022-11-16T00:25:01.571Z,3.28
2022-11-16T00:27:28.073Z,3.28
2022-11-16T00:29:54.527Z,3.26
2022-11-16T00:32:21.083Z,3.23
2022-11-16T00:34:47.514Z,3.20
2022-11-16T00:37:13.945Z,3.20
2022-11-16T00:39:40.373Z,3.19
2022-11-16T00:42:06.826Z,3.19
2022-11-16T00:44:33.267Z,3.17
2022-11-16T00:46:59.644Z,3.14
2022-11-16T00:49:26.088Z,3.08
2022-11-16T00:51:52.498Z,3.05
2022-11-16T00:54:19.619Z,2.98
2022-11-16T00:56:46.095Z,2.94
2022-11-16T00:59:12.566Z,2.91
2022-11-16T01:01:41.272Z,2.87
2022-11-16T01:04:07.788Z,2.82
2022-11-16T01:06:35.704Z,2.82
2022-11-16T01:09:02.506Z,2.84
2022-11-16T01:11:47.716Z,2.87
2022-11-16T01:14:14.229Z,2.87
2022-11-16T01:16:43.147Z,2.89
2022-11-16T01:19:09.629Z,2.88
2022-11-16T01:21:36.695Z,2.89
2022-11-16T01:24:03.170Z,2.90
2022-11-16T01:26:29.698Z,2.92
2022-11-16T01:28:57.668Z,2.94
2022-11-16T01:31:24.474Z,2.93
2022-11-16T01:33:51.806Z,2.95
2022-11-16T01:36:27.051Z,2.97
2022-11-16T01:38:55.489Z,2.98
2022-11-16T01:41:26.161Z,3.01
2022-11-16T01:43:55.647Z,3.06
2022-11-16T01:46:25.088Z,3.10
2022-11-16T01:48:54.775Z,3.13
2022-11-16T01:51:22.520Z,3.17
2022-11-16T01:53:49.616Z,3.22
2022-11-16T01:56:17.009Z,3.25
2022-11-16T01:58:52.374Z,3.27
2022-11-16T02:01:23.588Z,3.30
2022-11-16T02:03:54.403Z,3.30
2022-11-16T02:06:21.371Z,3.32
2022-11-16T02:09:25.517Z,3.33
2022-11-16T02:12:29.881Z,3.34
2022-11-16T02:14:56.373Z,3.39
2022-11-16T02:17:23.827Z,3.39
2022-11-16T02:20:09.447Z,3.39
2022-11-16T02:22:55.552Z,3.41
2022-11-16T02:25:32.359Z,3.42
2022-11-16T02:28:13.099Z,3.45
2022-11-16T02:30:43.288Z,3.47
2022-11-16T02:33:12.643Z,3.51
2022-11-16T02:35:52.133Z,3.52
2022-11-16T02:38:23.034Z,3.52
2022-11-16T02:40:53.268Z,3.54
2022-11-16T02:43:28.155Z,3.54
2022-11-16T02:45:57.099Z,3.54
2022-11-16T02:48:26.010Z,3.54
2022-11-16T02:50:53.723Z,3.54
2022-11-16T02:53:21.219Z,3.57
2022-11-16T02:55:47.883Z,3.58
2022-11-16T02:58:17.912Z,3.60
2022-11-16T03:00:48.026Z,3.63
2022-11-16T03:03:20.803Z,3.69
2022-11-16T03:05:50.284Z,3.70
2022-11-16T03:08:23.177Z,3.74
2022-11-16T03:11:12.262Z,3.76
2022-11-16T03:13:40.554Z,3.79
2022-11-16T03:16:16.057Z,3.80
2022-11-16T03:18:44.396Z,3.84
2022-11-16T03:21:15.173Z,3.86
2022-11-16T03:23:43.490Z,3.88
2022-11-16T03:26:10.396Z,3.91
2022-11-16T03:28:42.398Z,3.93
2022-11-16T03:31:14.991Z,3.94
2022-11-16T03:33:48.328Z,3.97
2022-11-16T03:36:18.116Z,4.00
2022-11-16T03:38:46.353Z,4.02
2022-11-16T03:41:14.726Z,4.06
2022-11-16T03:43:43.446Z,4.07
2022-11-16T03:46:10.065Z,4.08
2022-11-16T03:48:37.807Z,4.13
2022-11-16T03:51:10.330Z,4.13
2022-11-16T03:53:38.416Z,4.18
2022-11-16T03:56:05.082Z,4.19
2022-11-16T03:58:31.947Z,4.21
2022-11-16T04:00:59.119Z,4.22
2022-11-16T04:03:27.615Z,4.23
2022-11-16T04:06:13.127Z,4.23
2022-11-16T04:08:58.316Z,4.27
2022-11-16T04:11:43.600Z,4.28
2022-11-16T04:14:33.462Z,4.29
2022-11-16T04:17:18.717Z,4.32
2022-11-16T04:20:03.784Z,4.36
2022-11-16T04:22:58.077Z,4.34
2022-11-16T04:25:28.246Z,4.37
2022-11-16T04:28:13.452Z,4.37
2022-11-16T04:31:03.943Z,4.33
2022-11-16T04:33:49.751Z,4.34
2022-11-16T04:36:36.051Z,4.30
2022-11-16T04:39:03.340Z,4.25
2022-11-16T04:41:49.146Z,4.31
2022-11-16T04:44:16.049Z,4.30
2022-11-16T04:47:01.360Z,4.28
2022-11-16T04:49:27.788Z,4.28
2022-11-16T04:51:56.101Z,4.28
2022-11-16T04:54:23.032Z,4.29
2022-11-16T04:56:49.857Z,4.30
2022-11-16T04:59:18.712Z,4.27
2022-11-16T05:02:03.854Z,4.26
2022-11-16T05:04:30.779Z,4.22
2022-11-16T05:06:58.034Z,4.22
2022-11-16T05:09:24.726Z,4.26
2022-11-16T05:11:51.450Z,4.27
2022-11-16T05:14:17.968Z,4.32
2022-11-16T05:16:44.433Z,4.35
2022-11-16T05:19:29.432Z,4.36
2022-11-16T05:21:58.509Z,4.37
2022-11-16T05:24:34.112Z,4.42
2022-11-16T05:27:03.678Z,4.45
2022-11-16T05:29:31.058Z,4.47
2022-11-16T05:31:58.040Z,4.49
2022-11-16T05:34:25.860Z,4.49
2022-11-16T05:36:52.415Z,4.49
2022-11-16T05:39:19.533Z,4.49
2022-11-16T05:41:47.377Z,4.50
2022-11-16T05:44:14.312Z,4.51
2022-11-16T05:46:41.265Z,4.51
2022-11-16T05:49:08.787Z,4.53
2022-11-16T05:51:36.793Z,4.55
2022-11-16T05:54:03.761Z,4.56
2022-11-16T05:56:31.524Z,4.58
2022-11-16T05:58:58.263Z,4.55
2022-11-16T06:01:25.385Z,4.59
2022-11-16T06:03:52.040Z,4.59
2022-11-16T06:06:18.629Z,4.62
2022-11-16T06:08:45.412Z,4.63
2022-11-16T06:11:16.673Z,4.63
2022-11-16T06:13:44.393Z,4.64
2022-11-16T06:16:11.627Z,4.64
2022-11-16T06:18:40.271Z,4.68
2022-11-16T06:21:07.813Z,4.70
2022-11-16T06:23:34.818Z,4.71
2022-11-16T06:26:02.565Z,4.70
2022-11-16T06:28:30.005Z,4.72
2022-11-16T06:30:56.780Z,4.74
2022-11-16T06:33:28.537Z,4.75
2022-11-16T06:35:57.917Z,4.77
2022-11-16T06:38:24.634Z,4.76
2022-11-16T06:40:55.308Z,4.75
2022-11-16T06:43:26.163Z,4.74
2022-11-16T06:45:57.870Z,4.74
2022-11-16T06:48:24.618Z,4.76
2022-11-16T06:50:52.085Z,4.77
2022-11-16T06:53:27.601Z,4.81
2022-11-16T06:56:00.735Z,4.84
2022-11-16T06:58:28.911Z,4.82
2022-11-16T07:00:55.404Z,4.83
2022-11-16T07:03:22.800Z,4.86
2022-11-16T07:05:49.241Z,4.84
2022-11-16T07:08:17.212Z,4.87
2022-11-16T07:10:43.655Z,4.85
2022-11-16T07:13:10.099Z,4.88
2022-11-16T07:15:38.449Z,4.87
2022-11-16T07:18:06.449Z,4.86
2022-11-16T07:20:35.110Z,4.88
2022-11-16T07:23:02.938Z,4.92
2022-11-16T07:25:29.485Z,4.91
2022-11-16T07:27:57.788Z,4.93
2022-11-16T07:30:24.686Z,4.95
2022-11-16T07:33:04.161Z,4.94
2022-11-16T07:35:49.028Z,4.92
2022-11-16T07:38:18.203Z,4.97
2022-11-16T07:40:45.705Z,5.00
2022-11-16T07:43:20.172Z,5.03
2022-11-16T07:46:44.732Z,5.01
2022-11-16T07:48:53.657Z,5.04
2022-11-16T07:51:38.625Z,5.08
2022-11-16T07:54:24.218Z,5.08
2022-11-16T07:56:51.232Z,5.08
2022-11-16T07:59:18.435Z,5.11
2022-11-16T08:01:48.542Z,5.14
2022-11-16T08:04:17.384Z,5.16
2022-11-16T08:06:44.309Z,5.16
2022-11-16T08:09:10.856Z,5.19
2022-11-16T08:11:38.041Z,5.21
2022-11-16T08:14:04.769Z,5.24
2022-11-16T08:16:33.305Z,5.26
2022-11-16T08:19:07.861Z,5.26
2022-11-16T08:21:34.352Z,5.27
2022-11-16T08:24:02.542Z,5.28
2022-11-16T08:26:30.640Z,5.29
2022-11-16T08:29:03.380Z,5.31
2022-11-16T08:31:34.019Z,5.34
2022-11-16T08:34:07.747Z,5.37
2022-11-16T08:36:36.094Z,5.38
2022-11-16T08:39:03.274Z,5.39
2022-11-16T08:41:31.684Z,5.39
2022-11-16T08:44:00.414Z,5.44
2022-11-16T08:46:27.053Z,5.47
2022-11-16T08:49:02.787Z,5.52
2022-11-16T08:51:29.278Z,5.54
2022-11-16T08:54:03.888Z,5.53
2022-11-16T08:56:31.233Z,5.55
2022-11-16T08:58:59.094Z,5.58
2022-11-16T09:01:27.937Z,5.59
2022-11-16T09:03:54.887Z,5.62
2022-11-16T09:06:21.784Z,5.66
2022-11-16T09:08:48.235Z,5.65
2022-11-16T09:11:16.162Z,5.68
2022-11-16T09:13:43.138Z,5.68
2022-11-16T09:16:10.192Z,5.70
2022-11-16T09:18:37.396Z,5.72
2022-11-16T09:21:04.191Z,5.73
2022-11-16T09:23:30.593Z,5.71
2022-11-16T09:26:00.176Z,5.70
2022-11-16T09:28:27.687Z,5.71
2022-11-16T09:30:54.076Z,5.73
2022-11-16T09:33:20.464Z,5.72
2022-11-16T09:35:47.061Z,5.77
2022-11-16T09:38:19.116Z,5.80
2022-11-16T09:40:50.720Z,5.86
2022-11-16T09:43:32.901Z,5.92
2022-11-16T09:46:14.788Z,5.95
2022-11-16T09:48:41.425Z,6.05
2022-11-16T09:51:09.710Z,6.12
2022-11-16T09:53:36.583Z,6.19
2022-11-16T09:56:05.656Z,6.27
2022-11-16T09:58:35.283Z,6.31
2022-11-16T10:01:05.863Z,6.34
2022-11-16T10:03:38.132Z,6.37
2022-11-16T10:06:12.867Z,6.44
2022-11-16T10:08:45.502Z,6.45
2022-11-16T10:11:30.661Z,6.56
2022-11-16T10:14:25.747Z,6.55
2022-11-16T10:17:11.047Z,6.62
2022-11-16T10:19:43.500Z,6.64
2022-11-16T10:22:28.779Z,6.67
2022-11-16T10:24:59.098Z,6.69
2022-11-16T10:27:37.904Z,6.69
2022-11-16T10:30:08.894Z,6.74
2022-11-16T10:32:39.431Z,6.78
2022-11-16T10:35:11.961Z,6.81
2022-11-16T10:37:41.158Z,6.85
2022-11-16T10:40:21.643Z,5.62
2022-11-16T10:43:05.904Z,6.95
2022-11-16T10:45:39.171Z,6.97
2022-11-16T10:48:23.743Z,7.04
2022-11-16T10:50:51.682Z,7.09
2022-11-16T10:53:28.786Z,7.13
2022-11-16T10:56:14.044Z,7.15
2022-11-16T10:58:55.775Z,7.17
2022-11-16T11:01:33.176Z,7.20
2022-11-16T11:04:11.705Z,7.22
2022-11-16T11:06:38.463Z,7.22
2022-11-16T11:09:14.752Z,7.27
2022-11-16T11:11:59.890Z,7.31
2022-11-16T11:14:26.346Z,7.34
2022-11-16T11:16:53.136Z,7.36
2022-11-16T11:19:27.431Z,7.39
2022-11-16T11:21:58.624Z,7.43
2022-11-16T11:27:12.269Z,7.45
2022-11-16T11:29:41.270Z,7.42
2022-11-16T11:32:14.623Z,7.37
2022-11-16T11:34:44.802Z,7.35
2022-11-16T11:37:15.152Z,7.33
2022-11-16T11:39:41.599Z,7.32
2022-11-16T11:42:14.324Z,7.29
2022-11-16T11:44:50.167Z,7.28
2022-11-16T11:47:55.699Z,7.27
2022-11-16T11:50:10.969Z,7.27
2022-11-16T11:52:40.509Z,7.31
2022-11-16T11:55:07.799Z,7.37
2022-11-16T11:57:38.584Z,7.45
2022-11-16T12:00:05.864Z,7.55
2022-11-16T12:02:52.960Z,7.61
2022-11-16T12:05:35.358Z,7.68
2022-11-16T12:08:07.926Z,7.75
2022-11-16T12:10:37.371Z,7.84
2022-11-16T12:13:03.873Z,7.91
2022-11-16T12:15:46.989Z,8.01
2022-11-16T12:18:13.350Z,8.09
2022-11-16T12:20:58.779Z,8.14
2022-11-16T12:23:44.084Z,8.16
2022-11-16T12:26:10.461Z,8.14
2022-11-16T12:28:39.857Z,8.14
2022-11-16T12:31:10.167Z,8.15
2022-11-16T12:33:44.356Z,8.19
2022-11-16T12:36:13.863Z,8.22
2022-11-16T12:38:45.213Z,8.29
2022-11-16T12:41:23.974Z,8.38
2022-11-16T12:43:50.395Z,8.48
2022-11-16T12:46:21.641Z,8.55
2022-11-16T12:48:48.317Z,8.61
2022-11-16T12:51:14.682Z,8.63
2022-11-16T12:53:56.864Z,8.64
2022-11-16T12:56:37.714Z,8.65
2022-11-16T12:59:16.374Z,8.64
2022-11-16T13:02:00.629Z,8.65
2022-11-16T13:04:32.094Z,8.70
2022-11-16T13:07:11.427Z,8.74
2022-11-16T13:09:40.659Z,8.84
2022-11-16T13:12:14.118Z,8.89
2022-11-16T13:14:43.425Z,8.98
2022-11-16T13:17:15.289Z,9.05
2022-11-16T13:19:44.170Z,9.16
2022-11-16T13:22:14.602Z,9.22
2022-11-16T13:24:44.359Z,9.28
2022-11-16T13:27:26.207Z,9.38
2022-11-16T13:29:52.605Z,9.45
2022-11-16T13:32:31.206Z,9.50
2022-11-16T13:34:58.794Z,9.50
2022-11-16T13:37:37.889Z,9.50
2022-11-16T13:40:04.594Z,9.54
2022-11-16T13:42:33.749Z,9.55
2022-11-16T13:45:09.532Z,9.57
2022-11-16T13:47:37.181Z,9.57
2022-11-16T13:50:05.734Z,9.59
2022-11-16T13:53:36.446Z,9.62
2022-11-16T13:55:34.139Z,7.94
2022-11-16T13:58:03.248Z,9.64
2022-11-16T14:00:31.370Z,9.63
2022-11-16T14:03:16.055Z,9.61
2022-11-16T14:05:47.103Z,9.56
2022-11-16T14:08:19.551Z,9.48
2022-11-16T14:10:52.092Z,9.44
2022-11-16T14:13:36.986Z,9.38
2022-11-16T14:16:21.677Z,9.33
2022-11-16T14:18:48.050Z,9.22
2022-11-16T14:21:17.432Z,9.18
2022-11-16T14:23:46.180Z,9.17
2022-11-16T14:26:39.056Z,9.17
2022-11-16T14:29:11.324Z,9.17
2022-11-16T14:31:46.770Z,9.17
2022-11-16T14:34:18.237Z,9.19
2022-11-16T14:36:45.996Z,9.23
2022-11-16T14:39:24.650Z,9.24
2022-11-16T14:41:51.266Z,9.23
2022-11-16T14:44:19.445Z,9.25
2022-11-16T14:46:46.337Z,9.29
2022-11-16T14:49:15.944Z,9.30
2022-11-16T14:51:47.468Z,9.28
2022-11-16T14:54:20.386Z,9.24
2022-11-16T14:56:57.740Z,9.20
2022-11-16T14:59:24.270Z,9.15
2022-11-16T15:01:50.743Z,9.08
2022-11-16T15:04:17.880Z,9.00
2022-11-16T15:06:48.826Z,8.89
2022-11-16T15:09:24.377Z,8.85
2022-11-16T15:12:09.605Z,8.78
2022-11-16T15:14:50.847Z,8.72
2022-11-16T15:17:19.395Z,8.63
2022-11-16T15:19:59.258Z,8.55
2022-11-16T15:22:30.387Z,8.50
2022-11-16T15:24:58.191Z,8.43
2022-11-16T15:27:27.912Z,8.39
2022-11-16T15:29:54.330Z,8.36
2022-11-16T15:32:20.880Z,8.34
2022-11-16T15:34:49.002Z,8.31
2022-11-16T15:37:25.946Z,8.27
2022-11-16T15:39:56.396Z,8.23
2022-11-16T15:42:23.799Z,8.20
2022-11-16T15:44:50.910Z,8.19
2022-11-16T15:47:18.113Z,8.14
2022-11-16T15:49:49.488Z,8.16
2022-11-16T15:52:35.006Z,8.16
2022-11-16T15:55:04.311Z,8.15
2022-11-16T15:57:30.977Z,8.13
2022-11-16T15:59:58.015Z,8.14
2022-11-16T16:02:29.789Z,8.13
2022-11-16T16:04:56.629Z,8.12
2022-11-16T16:07:36.581Z,8.12
2022-11-16T16:10:18.400Z,8.12
2022-11-16T16:12:52.098Z,8.11
2022-11-16T16:15:21.939Z,8.09
2022-11-16T16:17:48.803Z,8.09
2022-11-16T16:20:18.214Z,8.09
2022-11-16T16:22:44.669Z,8.06
2022-11-16T16:25:30.099Z,8.04
2022-11-16T16:27:56.530Z,8.02
2022-11-16T16:30:23.179Z,7.99
2022-11-16T16:32:50.311Z,7.98
2022-11-16T16:35:18.314Z,7.97
2022-11-16T16:37:47.933Z,7.94
2022-11-16T16:40:14.389Z,7.92
2022-11-16T16:42:42.890Z,7.91
2022-11-16T16:45:14.869Z,7.92
2022-11-16T16:47:41.425Z,7.92
2022-11-16T16:50:08.005Z,7.91
2022-11-16T16:52:34.366Z,7.91
2022-11-16T16:55:00.774Z,7.92
2022-11-16T16:57:28.904Z,7.93
2022-11-16T16:59:55.347Z,7.92
2022-11-16T17:02:21.961Z,7.87
2022-11-16T17:04:48.891Z,7.84
2022-11-16T17:07:15.868Z,6.90
2022-11-16T17:09:42.795Z,7.82
2022-11-16T17:12:10.761Z,7.84
2022-11-16T17:14:37.329Z,7.84
2022-11-16T17:17:03.759Z,7.82
2022-11-16T17:19:30.155Z,7.81
2022-11-16T17:21:56.629Z,7.82
2022-11-16T17:24:23.108Z,7.83
2022-11-16T17:26:53.434Z,7.83
2022-11-16T17:29:19.825Z,7.82
2022-11-16T17:31:47.114Z,7.81
2022-11-16T17:34:14.117Z,7.78
2022-11-16T17:36:42.661Z,7.76
2022-11-16T17:39:09.251Z,7.76
2022-11-16T17:41:35.988Z,7.77
2022-11-16T17:44:02.334Z,7.78
2022-11-16T17:46:29.162Z,7.78
2022-11-16T17:48:55.693Z,7.79
2022-11-16T17:51:23.547Z,7.80
2022-11-16T17:53:50.596Z,7.78
2022-11-16T17:56:19.031Z,7.79
2022-11-16T17:58:46.206Z,7.78
2022-11-16T18:01:13.597Z,7.79
2022-11-16T18:03:42.510Z,7.79
2022-11-16T18:06:13.922Z,7.81
2022-11-16T18:08:40.842Z,7.82
2022-11-16T18:11:08.305Z,7.81
2022-11-16T18:13:35.555Z,7.81
2022-11-16T18:16:21.489Z,7.80
2022-11-16T18:18:48.490Z,7.79
2022-11-16T18:21:20.388Z,7.75
2022-11-16T18:23:47.371Z,7.74
2022-11-16T18:26:14.972Z,7.73
2022-11-16T18:28:41.472Z,7.71
2022-11-16T18:31:09.792Z,7.71
2022-11-16T18:33:36.961Z,7.70
2022-11-16T18:36:04.480Z,7.70
2022-11-16T18:38:31.385Z,7.69
2022-11-16T18:41:06.993Z,7.69
2022-11-16T18:43:36.704Z,7.68
2022-11-16T18:46:03.637Z,7.68
2022-11-16T18:48:30.066Z,7.71
2022-11-16T18:50:58.681Z,7.72
2022-11-16T18:53:25.457Z,7.70
2022-11-16T18:55:57.594Z,7.71
2022-11-16T18:58:49.244Z,7.72
2022-11-16T19:01:12.692Z,7.70
2022-11-16T19:03:39.120Z,7.72
2022-11-16T19:06:10.187Z,7.73
2022-11-16T19:08:37.599Z,7.69
2022-11-16T19:11:08.544Z,7.70
2022-11-16T19:13:35.474Z,7.68
2022-11-16T19:16:03.748Z,7.68
2022-11-16T19:18:30.237Z,7.69
2022-11-16T19:21:18.452Z,7.68
2022-11-16T19:23:46.120Z,7.67
2022-11-16T19:26:14.491Z,7.66
2022-11-16T19:28:42.259Z,7.64
2022-11-16T19:31:09.911Z,7.64
2022-11-16T19:33:36.857Z,7.64
2022-11-16T19:36:10.550Z,7.63
2022-11-16T19:38:37.455Z,7.63
2022-11-16T19:41:04.472Z,7.66
2022-11-16T19:43:31.314Z,7.66
2022-11-16T19:46:05.188Z,7.66
2022-11-16T19:48:32.556Z,7.66
2022-11-16T19:51:06.396Z,7.66
2022-11-16T19:53:33.235Z,7.68
2022-11-16T19:56:00.306Z,7.68
2022-11-16T19:58:26.976Z,7.68
2022-11-16T20:01:00.080Z,7.71
2022-11-16T20:03:26.693Z,7.73
2022-11-16T20:05:55.980Z,7.74
2022-11-16T20:08:22.426Z,7.74
2022-11-16T20:10:48.848Z,7.76
2022-11-16T20:13:15.596Z,7.77
2022-11-16T20:15:42.080Z,7.79
2022-11-16T20:18:09.041Z,7.79
2022-11-16T20:20:37.117Z,7.79
2022-11-16T20:23:03.669Z,7.79
2022-11-16T20:25:30.112Z,7.79
2022-11-16T20:27:56.493Z,7.81
2022-11-16T20:30:22.880Z,7.78
2022-11-16T20:32:49.540Z,7.78
2022-11-16T20:35:19.064Z,7.78
2022-11-16T20:37:45.729Z,7.80
2022-11-16T20:40:12.337Z,7.81
2022-11-16T20:42:38.758Z,7.79
2022-11-16T20:45:06.734Z,7.80
2022-11-16T20:47:33.162Z,7.80
2022-11-16T20:49:59.540Z,7.80
2022-11-16T20:52:25.945Z,7.83
2022-11-16T20:54:52.334Z,7.83
2022-11-16T20:57:19.023Z,7.82
2022-11-16T20:59:45.490Z,7.83
2022-11-16T21:02:11.957Z,7.84
2022-11-16T21:04:38.342Z,7.83
2022-11-16T21:07:04.804Z,7.80
2022-11-16T21:09:51.339Z,7.80
2022-11-16T21:12:42.635Z,7.80
2022-11-16T21:15:09.814Z,7.80
2022-11-16T21:17:36.436Z,7.79
2022-11-16T21:20:26.333Z,7.79
2022-11-16T21:22:50.724Z,7.78
2022-11-16T21:25:17.456Z,7.78
2022-11-16T21:27:43.893Z,7.77
2022-11-16T21:30:10.921Z,7.77
2022-11-16T21:32:37.364Z,7.74
2022-11-16T21:35:03.867Z,7.76
2022-11-16T21:37:30.274Z,7.75
2022-11-16T21:39:56.714Z,7.74
2022-11-16T21:42:23.138Z,7.74
2022-11-16T21:44:49.627Z,7.74
2022-11-16T21:47:16.017Z,7.76
2022-11-16T21:50:08.342Z,7.73
2022-11-16T21:52:29.083Z,7.74
2022-11-16T21:55:01.145Z,7.75
2022-11-16T21:57:28.964Z,7.74
2022-11-16T21:59:55.557Z,7.73
2022-11-16T22:02:21.941Z,7.71
2022-11-16T22:05:07.071Z,7.72
2022-11-16T22:07:37.896Z,7.71
2022-11-16T22:10:06.335Z,7.73
2022-11-16T22:12:33.061Z,7.74
2022-11-16T22:14:59.598Z,7.72
2022-11-16T22:17:26.203Z,7.72
2022-11-16T22:19:53.887Z,7.71
2022-11-16T22:22:20.311Z,7.70
2022-11-16T22:24:47.448Z,7.70
2022-11-16T22:27:17.640Z,7.71
2022-11-16T22:29:44.427Z,7.69
2022-11-16T22:32:10.898Z,7.69
2022-11-16T22:34:37.421Z,7.66
2022-11-16T22:37:03.809Z,7.68
2022-11-16T22:39:30.220Z,7.67
2022-11-16T22:41:56.652Z,7.65
2022-11-16T22:44:23.028Z,7.64
2022-11-16T22:46:49.529Z,7.65
2022-11-16T22:49:15.903Z,7.64
2022-11-16T22:51:42.407Z,7.62
2022-11-16T22:54:11.328Z,7.63
2022-11-16T22:56:38.164Z,7.61
2022-11-16T22:59:05.626Z,7.60
2022-11-16T23:01:32.202Z,6.82
2022-11-16T23:03:58.700Z,7.59
2022-11-16T23:06:25.559Z,7.60
2022-11-16T23:08:52.039Z,7.60
2022-11-16T23:11:39.060Z,7.55
2022-11-16T23:14:24.780Z,7.55
2022-11-16T23:16:51.525Z,7.55
2022-11-16T23:19:37.375Z,7.57
2022-11-16T23:22:23.094Z,7.56
2022-11-16T23:25:07.897Z,7.57
2022-11-16T23:27:43.518Z,7.57
2022-11-16T23:30:12.705Z,7.57
2022-11-16T23:32:40.417Z,7.50
2022-11-16T23:35:07.309Z,7.54
2022-11-16T23:37:33.803Z,7.55
2022-11-16T23:40:00.323Z,7.54
2022-11-16T23:42:45.512Z,7.54
2022-11-16T23:45:11.912Z,7.55
2022-11-16T23:47:38.298Z,7.51
2022-11-16T23:50:04.866Z,7.51
2022-11-16T23:52:31.305Z,7.53
2022-11-16T23:54:57.738Z,7.53
2022-11-16T23:57:24.131Z,7.52
2022-11-16T23:59:50.601Z,7.51
